sensor_id;sensor_type;location;lat;lon;timestamp;P1;durP1;ratioP1;P2;durP2;ratioP2
4744;SDS011;2386;42.138;24.746;2022-08-07T00:01:40;18.13;;;11.30;;
4744;SDS011;2386;42.138;24.746;2022-08-07T00:04:06;13.70;;;11.20;;
4744;SDS011;2386;42.138;24.746;2022-08-07T00:06:32;13.70;;;11.93;;
4744;SDS011;2386;42.138;24.746;2022-08-07T00:08:57;15.83;;;11.40;;
4744;SDS011;2386;42.138;24.746;2022-08-07T00:11:23;15.77;;;11.30;;
4744;SDS011;2386;42.138;24.746;2022-08-07T00:13:48;13.87;;;11.43;;
4744;SDS011;2386;42.138;24.746;2022-08-07T00:16:14;26.73;;;11.83;;
4744;SDS011;2386;42.138;24.746;2022-08-07T00:18:39;12.53;;;11.23;;
4744;SDS011;2386;42.138;24.746;2022-08-07T00:21:06;15.53;;;11.47;;
4744;SDS011;2386;42.138;24.746;2022-08-07T00:23:33;16.10;;;11.30;;
4744;SDS011;2386;42.138;24.746;2022-08-07T00:26:00;12.90;;;11.20;;
4744;SDS011;2386;42.138;24.746;2022-08-07T00:28:28;14.57;;;11.00;;
4744;SDS011;2386;42.138;24.746;2022-08-07T00:30:54;20.53;;;11.57;;
4744;SDS011;2386;42.138;24.746;2022-08-07T00:33:19;14.83;;;11.20;;
4744;SDS011;2386;42.138;24.746;2022-08-07T00:35:57;12.97;;;11.07;;
4744;SDS011;2386;42.138;24.746;2022-08-07T00:38:24;13.63;;;10.20;;
4744;SDS011;2386;42.138;24.746;2022-08-07T00:40:49;18.20;;;10.40;;
4744;SDS011;2386;42.138;24.746;2022-08-07T00:43:15;10.97;;;9.87;;
4744;SDS011;2386;42.138;24.746;2022-08-07T00:45:40;12.90;;;10.57;;
4744;SDS011;2386;42.138;24.746;2022-08-07T00:48:07;11.17;;;9.87;;
4744;SDS011;2386;42.138;24.746;2022-08-07T00:50:33;11.17;;;10.00;;
4744;SDS011;2386;42.138;24.746;2022-08-07T00:52:59;10.73;;;9.63;;
4744;SDS011;2386;42.138;24.746;2022-08-07T00:55:25;12.13;;;9.87;;
4744;SDS011;2386;42.138;24.746;2022-08-07T00:57:51;15.07;;;10.43;;
4744;SDS011;2386;42.138;24.746;2022-08-07T01:00:16;23.67;;;11.20;;
4744;SDS011;2386;42.138;24.746;2022-08-07T01:02:43;13.50;;;11.70;;
4744;SDS011;2386;42.138;24.746;2022-08-07T01:05:10;13.83;;;11.30;;
4744;SDS011;2386;42.138;24.746;2022-08-07T01:07:36;17.73;;;11.90;;
4744;SDS011;2386;42.138;24.746;2022-08-07T01:10:02;19.13;;;11.33;;
4744;SDS011;2386;42.138;24.746;2022-08-07T01:12:27;12.80;;;11.20;;
4744;SDS011;2386;42.138;24.746;2022-08-07T01:14:53;14.23;;;12.00;;
4744;SDS011;2386;42.138;24.746;2022-08-07T01:17:21;14.43;;;10.77;;
4744;SDS011;2386;42.138;24.746;2022-08-07T01:19:47;19.60;;;12.27;;
4744;SDS011;2386;42.138;24.746;2022-08-07T01:22:14;13.50;;;12.10;;
4744;SDS011;2386;42.138;24.746;2022-08-07T01:24:40;16.90;;;11.70;;
4744;SDS011;2386;42.138;24.746;2022-08-07T01:27:06;16.50;;;11.70;;
4744;SDS011;2386;42.138;24.746;2022-08-07T01:29:32;16.60;;;12.90;;
4744;SDS011;2386;42.138;24.746;2022-08-07T01:31:58;20.33;;;12.07;;
4744;SDS011;2386;42.138;24.746;2022-08-07T01:34:24;17.43;;;11.53;;
4744;SDS011;2386;42.138;24.746;2022-08-07T01:36:50;13.40;;;11.17;;
4744;SDS011;2386;42.138;24.746;2022-08-07T01:39:16;15.37;;;11.63;;
4744;SDS011;2386;42.138;24.746;2022-08-07T01:41:41;15.53;;;11.30;;
4744;SDS011;2386;42.138;24.746;2022-08-07T01:44:10;18.40;;;11.27;;
4744;SDS011;2386;42.138;24.746;2022-08-07T01:46:36;21.73;;;10.77;;
4744;SDS011;2386;42.138;24.746;2022-08-07T01:49:03;13.27;;;10.90;;
4744;SDS011;2386;42.138;24.746;2022-08-07T01:51:29;16.20;;;10.27;;
4744;SDS011;2386;42.138;24.746;2022-08-07T01:53:56;11.43;;;10.23;;
4744;SDS011;2386;42.138;24.746;2022-08-07T01:56:25;12.40;;;10.13;;
4744;SDS011;2386;42.138;24.746;2022-08-07T01:59:02;11.17;;;9.50;;
4744;SDS011;2386;42.138;24.746;2022-08-07T02:01:32;11.77;;;9.90;;
4744;SDS011;2386;42.138;24.746;2022-08-07T02:04:02;10.57;;;9.50;;
4744;SDS011;2386;42.138;24.746;2022-08-07T02:06:37;15.17;;;9.70;;
4744;SDS011;2386;42.138;24.746;2022-08-07T02:09:06;14.90;;;10.30;;
4744;SDS011;2386;42.138;24.746;2022-08-07T02:11:34;14.43;;;10.33;;
4744;SDS011;2386;42.138;24.746;2022-08-07T02:14:02;12.57;;;9.60;;
4744;SDS011;2386;42.138;24.746;2022-08-07T02:16:28;12.80;;;10.10;;
4744;SDS011;2386;42.138;24.746;2022-08-07T02:18:55;17.40;;;10.60;;
4744;SDS011;2386;42.138;24.746;2022-08-07T02:21:21;20.03;;;9.80;;
4744;SDS011;2386;42.138;24.746;2022-08-07T02:23:48;15.47;;;10.27;;
4744;SDS011;2386;42.138;24.746;2022-08-07T02:26:14;13.27;;;9.90;;
4744;SDS011;2386;42.138;24.746;2022-08-07T02:28:41;12.17;;;9.90;;
4744;SDS011;2386;42.138;24.746;2022-08-07T02:31:08;14.17;;;9.43;;
4744;SDS011;2386;42.138;24.746;2022-08-07T02:33:35;10.20;;;8.70;;
4744;SDS011;2386;42.138;24.746;2022-08-07T02:36:02;15.27;;;10.40;;
4744;SDS011;2386;42.138;24.746;2022-08-07T02:38:31;10.53;;;9.43;;
4744;SDS011;2386;42.138;24.746;2022-08-07T02:40:59;10.87;;;9.30;;
4744;SDS011;2386;42.138;24.746;2022-08-07T02:43:26;11.83;;;10.10;;
4744;SDS011;2386;42.138;24.746;2022-08-07T02:45:52;11.10;;;10.00;;
4744;SDS011;2386;42.138;24.746;2022-08-07T02:48:21;10.70;;;9.50;;
4744;SDS011;2386;42.138;24.746;2022-08-07T02:50:47;10.23;;;8.80;;
4744;SDS011;2386;42.138;24.746;2022-08-07T02:53:20;28.33;;;9.43;;
4744;SDS011;2386;42.138;24.746;2022-08-07T02:55:48;14.03;;;9.73;;
4744;SDS011;2386;42.138;24.746;2022-08-07T02:58:17;10.93;;;9.70;;
4744;SDS011;2386;42.138;24.746;2022-08-07T03:00:45;11.10;;;9.53;;
4744;SDS011;2386;42.138;24.746;2022-08-07T03:03:14;10.23;;;9.17;;
4744;SDS011;2386;42.138;24.746;2022-08-07T03:05:41;12.50;;;8.70;;
4744;SDS011;2386;42.138;24.746;2022-08-07T03:08:08;14.67;;;9.93;;
4744;SDS011;2386;42.138;24.746;2022-08-07T03:10:36;12.40;;;9.80;;
4744;SDS011;2386;42.138;24.746;2022-08-07T03:13:02;10.40;;;9.27;;
4744;SDS011;2386;42.138;24.746;2022-08-07T03:15:29;11.80;;;9.20;;
4744;SDS011;2386;42.138;24.746;2022-08-07T03:17:55;15.57;;;9.60;;
4744;SDS011;2386;42.138;24.746;2022-08-07T03:20:22;16.63;;;10.23;;
4744;SDS011;2386;42.138;24.746;2022-08-07T03:22:48;11.07;;;9.47;;
4744;SDS011;2386;42.138;24.746;2022-08-07T03:25:15;12.83;;;9.77;;
4744;SDS011;2386;42.138;24.746;2022-08-07T03:27:42;12.77;;;9.10;;
4744;SDS011;2386;42.138;24.746;2022-08-07T03:30:10;11.40;;;9.37;;
4744;SDS011;2386;42.138;24.746;2022-08-07T03:32:37;13.90;;;9.37;;
4744;SDS011;2386;42.138;24.746;2022-08-07T03:35:06;15.10;;;10.00;;
4744;SDS011;2386;42.138;24.746;2022-08-07T03:37:36;14.57;;;10.30;;
4744;SDS011;2386;42.138;24.746;2022-08-07T03:40:03;9.93;;;8.93;;
4744;SDS011;2386;42.138;24.746;2022-08-07T03:42:30;13.10;;;9.33;;
4744;SDS011;2386;42.138;24.746;2022-08-07T03:44:58;11.17;;;10.03;;
4744;SDS011;2386;42.138;24.746;2022-08-07T03:47:25;11.83;;;9.10;;
4744;SDS011;2386;42.138;24.746;2022-08-07T03:49:51;15.50;;;10.17;;
4744;SDS011;2386;42.138;24.746;2022-08-07T03:52:17;11.20;;;9.57;;
4744;SDS011;2386;42.138;24.746;2022-08-07T03:54:44;15.30;;;9.53;;
4744;SDS011;2386;42.138;24.746;2022-08-07T03:57:09;9.83;;;8.93;;
4744;SDS011;2386;42.138;24.746;2022-08-07T03:59:36;14.60;;;10.40;;
4744;SDS011;2386;42.138;24.746;2022-08-07T04:02:03;12.23;;;9.60;;
4744;SDS011;2386;42.138;24.746;2022-08-07T04:04:29;12.87;;;9.97;;
4744;SDS011;2386;42.138;24.746;2022-08-07T04:06:55;9.70;;;8.80;;
4744;SDS011;2386;42.138;24.746;2022-08-07T04:09:21;10.80;;;9.80;;
4744;SDS011;2386;42.138;24.746;2022-08-07T04:11:47;14.80;;;9.73;;
4744;SDS011;2386;42.138;24.746;2022-08-07T04:14:14;11.00;;;9.80;;
4744;SDS011;2386;42.138;24.746;2022-08-07T04:16:40;12.17;;;9.93;;
4744;SDS011;2386;42.138;24.746;2022-08-07T04:19:06;12.67;;;10.33;;
4744;SDS011;2386;42.138;24.746;2022-08-07T04:21:32;13.30;;;9.50;;
4744;SDS011;2386;42.138;24.746;2022-08-07T04:23:57;10.13;;;9.13;;
4744;SDS011;2386;42.138;24.746;2022-08-07T04:26:24;10.10;;;9.10;;
4744;SDS011;2386;42.138;24.746;2022-08-07T04:28:49;17.23;;;9.30;;
4744;SDS011;2386;42.138;24.746;2022-08-07T04:31:15;10.57;;;9.30;;
4744;SDS011;2386;42.138;24.746;2022-08-07T04:33:40;12.90;;;10.00;;
4744;SDS011;2386;42.138;24.746;2022-08-07T04:36:06;11.80;;;9.87;;
4744;SDS011;2386;42.138;24.746;2022-08-07T04:38:35;10.50;;;8.97;;
4744;SDS011;2386;42.138;24.746;2022-08-07T04:41:01;12.57;;;9.80;;
4744;SDS011;2386;42.138;24.746;2022-08-07T04:43:29;11.60;;;8.63;;
4744;SDS011;2386;42.138;24.746;2022-08-07T04:51:08;15.40;;;10.60;;
4744;SDS011;2386;42.138;24.746;2022-08-07T05:00:05;11.80;;;10.37;;
4744;SDS011;2386;42.138;24.746;2022-08-07T05:02:38;14.23;;;9.83;;
4744;SDS011;2386;42.138;24.746;2022-08-07T05:10:36;17.03;;;10.57;;
4744;SDS011;2386;42.138;24.746;2022-08-07T05:13:06;13.13;;;10.00;;
4744;SDS011;2386;42.138;24.746;2022-08-07T05:15:41;18.37;;;10.10;;
4744;SDS011;2386;42.138;24.746;2022-08-07T05:18:14;16.43;;;10.77;;
4744;SDS011;2386;42.138;24.746;2022-08-07T05:20:48;14.80;;;9.93;;
4744;SDS011;2386;42.138;24.746;2022-08-07T05:23:21;10.80;;;9.70;;
4744;SDS011;2386;42.138;24.746;2022-08-07T05:25:53;13.53;;;9.30;;
4744;SDS011;2386;42.138;24.746;2022-08-07T05:28:19;17.77;;;10.40;;
4744;SDS011;2386;42.138;24.746;2022-08-07T05:30:46;14.93;;;10.03;;
4744;SDS011;2386;42.138;24.746;2022-08-07T05:33:12;10.97;;;9.40;;
4744;SDS011;2386;42.138;24.746;2022-08-07T05:35:39;12.57;;;10.30;;
4744;SDS011;2386;42.138;24.746;2022-08-07T05:38:06;12.17;;;9.70;;
4744;SDS011;2386;42.138;24.746;2022-08-07T05:40:33;11.43;;;9.60;;
4744;SDS011;2386;42.138;24.746;2022-08-07T05:43:00;10.80;;;9.70;;
4744;SDS011;2386;42.138;24.746;2022-08-07T05:45:26;14.93;;;9.90;;
4744;SDS011;2386;42.138;24.746;2022-08-07T05:47:52;11.27;;;10.03;;
4744;SDS011;2386;42.138;24.746;2022-08-07T05:50:18;10.67;;;9.67;;
4744;SDS011;2386;42.138;24.746;2022-08-07T05:52:45;13.70;;;10.07;;
4744;SDS011;2386;42.138;24.746;2022-08-07T05:55:10;17.97;;;10.40;;
4744;SDS011;2386;42.138;24.746;2022-08-07T05:57:36;11.40;;;9.40;;
4744;SDS011;2386;42.138;24.746;2022-08-07T06:00:04;14.50;;;10.43;;
4744;SDS011;2386;42.138;24.746;2022-08-07T06:02:31;10.80;;;9.70;;
4744;SDS011;2386;42.138;24.746;2022-08-07T06:05:01;10.97;;;9.87;;
4744;SDS011;2386;42.138;24.746;2022-08-07T06:07:30;11.60;;;9.77;;
4744;SDS011;2386;42.138;24.746;2022-08-07T06:09:58;19.33;;;10.03;;
4744;SDS011;2386;42.138;24.746;2022-08-07T06:12:24;12.03;;;9.87;;
4744;SDS011;2386;42.138;24.746;2022-08-07T06:14:50;13.90;;;9.53;;
4744;SDS011;2386;42.138;24.746;2022-08-07T06:17:19;14.40;;;10.40;;
4744;SDS011;2386;42.138;24.746;2022-08-07T06:19:45;11.23;;;9.70;;
4744;SDS011;2386;42.138;24.746;2022-08-07T06:22:12;13.60;;;10.03;;
4744;SDS011;2386;42.138;24.746;2022-08-07T06:24:38;10.70;;;9.47;;
4744;SDS011;2386;42.138;24.746;2022-08-07T06:27:04;11.13;;;10.00;;
4744;SDS011;2386;42.138;24.746;2022-08-07T06:29:30;13.07;;;9.87;;
4744;SDS011;2386;42.138;24.746;2022-08-07T06:31:55;13.30;;;10.63;;
4744;SDS011;2386;42.138;24.746;2022-08-07T06:34:24;12.40;;;9.47;;
4744;SDS011;2386;42.138;24.746;2022-08-07T06:36:50;9.67;;;8.77;;
4744;SDS011;2386;42.138;24.746;2022-08-07T06:39:16;9.50;;;8.50;;
4744;SDS011;2386;42.138;24.746;2022-08-07T06:41:47;15.33;;;9.37;;
4744;SDS011;2386;42.138;24.746;2022-08-07T06:44:16;11.97;;;9.20;;
4744;SDS011;2386;42.138;24.746;2022-08-07T06:46:44;9.93;;;8.93;;
4744;SDS011;2386;42.138;24.746;2022-08-07T06:49:09;12.17;;;8.20;;
4744;SDS011;2386;42.138;24.746;2022-08-07T06:51:35;11.70;;;9.17;;
4744;SDS011;2386;42.138;24.746;2022-08-07T06:54:03;9.10;;;8.23;;
4744;SDS011;2386;42.138;24.746;2022-08-07T06:56:29;9.53;;;8.50;;
4744;SDS011;2386;42.138;24.746;2022-08-07T06:59:17;9.67;;;8.73;;
4744;SDS011;2386;42.138;24.746;2022-08-07T07:01:46;10.03;;;8.53;;
4744;SDS011;2386;42.138;24.746;2022-08-07T07:04:12;10.47;;;8.70;;
4744;SDS011;2386;42.138;24.746;2022-08-07T07:06:38;9.50;;;8.60;;
4744;SDS011;2386;42.138;24.746;2022-08-07T07:11:48;10.37;;;8.80;;
4744;SDS011;2386;42.138;24.746;2022-08-07T07:14:24;23.37;;;8.83;;
4744;SDS011;2386;42.138;24.746;2022-08-07T07:16:54;14.40;;;8.60;;
4744;SDS011;2386;42.138;24.746;2022-08-07T07:19:29;9.43;;;8.17;;
4744;SDS011;2386;42.138;24.746;2022-08-07T07:21:57;9.33;;;8.43;;
4744;SDS011;2386;42.138;24.746;2022-08-07T07:24:25;10.77;;;9.30;;
4744;SDS011;2386;42.138;24.746;2022-08-07T07:26:51;10.40;;;8.87;;
4744;SDS011;2386;42.138;24.746;2022-08-07T07:29:20;9.07;;;8.17;;
4744;SDS011;2386;42.138;24.746;2022-08-07T07:31:49;10.53;;;8.80;;
4744;SDS011;2386;42.138;24.746;2022-08-07T07:34:23;13.97;;;9.40;;
4744;SDS011;2386;42.138;24.746;2022-08-07T07:36:52;11.53;;;8.60;;
4744;SDS011;2386;42.138;24.746;2022-08-07T07:39:19;9.53;;;8.23;;
4744;SDS011;2386;42.138;24.746;2022-08-07T07:41:46;8.77;;;7.97;;
4744;SDS011;2386;42.138;24.746;2022-08-07T07:44:15;9.17;;;8.17;;
4744;SDS011;2386;42.138;24.746;2022-08-07T07:46:44;8.60;;;7.77;;
4744;SDS011;2386;42.138;24.746;2022-08-07T07:49:14;9.60;;;8.67;;
4744;SDS011;2386;42.138;24.746;2022-08-07T07:51:42;9.30;;;8.40;;
4744;SDS011;2386;42.138;24.746;2022-08-07T07:54:10;9.73;;;8.73;;
4744;SDS011;2386;42.138;24.746;2022-08-07T07:56:38;13.17;;;9.00;;
4744;SDS011;2386;42.138;24.746;2022-08-07T07:59:06;12.70;;;7.97;;
4744;SDS011;2386;42.138;24.746;2022-08-07T08:01:33;11.63;;;8.37;;
4744;SDS011;2386;42.138;24.746;2022-08-07T08:04:03;14.00;;;8.03;;
4744;SDS011;2386;42.138;24.746;2022-08-07T08:06:30;8.70;;;7.80;;
4744;SDS011;2386;42.138;24.746;2022-08-07T08:08:58;13.27;;;8.87;;
4744;SDS011;2386;42.138;24.746;2022-08-07T08:11:26;11.57;;;8.20;;
4744;SDS011;2386;42.138;24.746;2022-08-07T08:13:53;10.30;;;8.10;;
4744;SDS011;2386;42.138;24.746;2022-08-07T08:16:19;10.70;;;8.37;;
4744;SDS011;2386;42.138;24.746;2022-08-07T08:18:47;8.40;;;7.50;;
4744;SDS011;2386;42.138;24.746;2022-08-07T08:21:15;8.43;;;7.67;;
4744;SDS011;2386;42.138;24.746;2022-08-07T08:24:04;16.23;;;8.80;;
4744;SDS011;2386;42.138;24.746;2022-08-07T08:26:50;11.03;;;9.33;;
4744;SDS011;2386;42.138;24.746;2022-08-07T08:29:30;9.93;;;8.10;;
4744;SDS011;2386;42.138;24.746;2022-08-07T08:32:01;9.77;;;8.07;;
4744;SDS011;2386;42.138;24.746;2022-08-07T08:34:28;9.70;;;8.50;;
4744;SDS011;2386;42.138;24.746;2022-08-07T08:36:57;9.73;;;8.73;;
4744;SDS011;2386;42.138;24.746;2022-08-07T08:39:24;9.33;;;8.33;;
4744;SDS011;2386;42.138;24.746;2022-08-07T08:42:04;11.80;;;9.57;;
4744;SDS011;2386;42.138;24.746;2022-08-07T08:44:40;12.50;;;9.07;;
4744;SDS011;2386;42.138;24.746;2022-08-07T08:47:23;10.20;;;9.20;;
4744;SDS011;2386;42.138;24.746;2022-08-07T08:50:03;9.03;;;8.13;;
4744;SDS011;2386;42.138;24.746;2022-08-07T08:55:58;8.47;;;7.67;;
4744;SDS011;2386;42.138;24.746;2022-08-07T09:15:38;10.10;;;6.00;;
4744;SDS011;2386;42.138;24.746;2022-08-07T10:52:27;4.60;;;4.30;;
4744;SDS011;2386;42.138;24.746;2022-08-07T10:55:16;6.60;;;4.30;;
4744;SDS011;2386;42.138;24.746;2022-08-07T11:03:41;4.23;;;3.83;;
4744;SDS011;2386;42.138;24.746;2022-08-07T11:06:18;5.87;;;3.80;;
4744;SDS011;2386;42.138;24.746;2022-08-07T11:11:30;4.03;;;3.73;;
4744;SDS011;2386;42.138;24.746;2022-08-07T11:17:00;4.73;;;4.40;;
4744;SDS011;2386;42.138;24.746;2022-08-07T11:25:16;10.87;;;4.43;;
4744;SDS011;2386;42.138;24.746;2022-08-07T11:28:07;5.47;;;4.20;;
4744;SDS011;2386;42.138;24.746;2022-08-07T11:33:28;5.33;;;4.83;;
4744;SDS011;2386;42.138;24.746;2022-08-07T11:36:08;5.83;;;4.67;;
4744;SDS011;2386;42.138;24.746;2022-08-07T11:41:27;9.30;;;4.20;;
4744;SDS011;2386;42.138;24.746;2022-08-07T11:43:57;4.23;;;3.93;;
4744;SDS011;2386;42.138;24.746;2022-08-07T12:04:16;4.63;;;4.20;;
4744;SDS011;2386;42.138;24.746;2022-08-07T12:06:51;5.20;;;4.70;;
4744;SDS011;2386;42.138;24.746;2022-08-07T12:14:28;6.23;;;5.63;;
4744;SDS011;2386;42.138;24.746;2022-08-07T12:19:33;7.17;;;6.10;;
4744;SDS011;2386;42.138;24.746;2022-08-07T12:27:32;6.40;;;5.90;;
4744;SDS011;2386;42.138;24.746;2022-08-07T12:30:04;7.53;;;6.50;;
4744;SDS011;2386;42.138;24.746;2022-08-07T12:32:41;7.77;;;6.47;;
4744;SDS011;2386;42.138;24.746;2022-08-07T12:35:18;11.10;;;6.60;;
4744;SDS011;2386;42.138;24.746;2022-08-07T12:37:46;13.13;;;6.70;;
4744;SDS011;2386;42.138;24.746;2022-08-07T12:40:16;10.93;;;6.53;;
4744;SDS011;2386;42.138;24.746;2022-08-07T12:42:44;6.90;;;6.23;;
4744;SDS011;2386;42.138;24.746;2022-08-07T12:45:11;13.00;;;6.50;;
4744;SDS011;2386;42.138;24.746;2022-08-07T12:47:48;10.50;;;5.63;;
4744;SDS011;2386;42.138;24.746;2022-08-07T12:55:58;5.27;;;4.77;;
4744;SDS011;2386;42.138;24.746;2022-08-07T12:58:29;6.77;;;4.57;;
4744;SDS011;2386;42.138;24.746;2022-08-07T13:06:43;5.40;;;5.00;;
4744;SDS011;2386;42.138;24.746;2022-08-07T13:09:30;11.70;;;5.50;;
4744;SDS011;2386;42.138;24.746;2022-08-07T13:12:13;14.30;;;6.40;;
4744;SDS011;2386;42.138;24.746;2022-08-07T13:15:10;7.00;;;6.23;;
4744;SDS011;2386;42.138;24.746;2022-08-07T13:20:46;9.00;;;5.90;;
4744;SDS011;2386;42.138;24.746;2022-08-07T13:23:23;11.23;;;6.70;;
4744;SDS011;2386;42.138;24.746;2022-08-07T13:29:33;10.40;;;7.67;;
4744;SDS011;2386;42.138;24.746;2022-08-07T13:32:03;7.80;;;7.10;;
4744;SDS011;2386;42.138;24.746;2022-08-07T13:34:57;9.17;;;7.37;;
4744;SDS011;2386;42.138;24.746;2022-08-07T13:42:49;9.57;;;7.70;;
4744;SDS011;2386;42.138;24.746;2022-08-07T13:45:17;12.03;;;7.80;;
4744;SDS011;2386;42.138;24.746;2022-08-07T13:47:44;12.47;;;8.67;;
4744;SDS011;2386;42.138;24.746;2022-08-07T13:50:14;11.90;;;9.53;;
4744;SDS011;2386;42.138;24.746;2022-08-07T13:52:44;11.80;;;9.53;;
4744;SDS011;2386;42.138;24.746;2022-08-07T13:55:12;13.27;;;10.50;;
4744;SDS011;2386;42.138;24.746;2022-08-07T13:57:41;19.93;;;9.93;;
4744;SDS011;2386;42.138;24.746;2022-08-07T14:00:08;11.80;;;8.90;;
4744;SDS011;2386;42.138;24.746;2022-08-07T14:02:35;11.17;;;9.17;;
4744;SDS011;2386;42.138;24.746;2022-08-07T14:05:03;9.47;;;8.57;;
4744;SDS011;2386;42.138;24.746;2022-08-07T14:07:33;10.87;;;8.60;;
4744;SDS011;2386;42.138;24.746;2022-08-07T14:10:03;11.33;;;7.27;;
4744;SDS011;2386;42.138;24.746;2022-08-07T14:15:18;11.27;;;7.23;;
4744;SDS011;2386;42.138;24.746;2022-08-07T14:17:45;11.77;;;7.33;;
4744;SDS011;2386;42.138;24.746;2022-08-07T14:22:52;15.77;;;7.40;;
4744;SDS011;2386;42.138;24.746;2022-08-07T14:25:45;12.40;;;7.70;;
4744;SDS011;2386;42.138;24.746;2022-08-07T14:28:18;13.37;;;7.33;;
4744;SDS011;2386;42.138;24.746;2022-08-07T14:30:46;13.70;;;7.67;;
4744;SDS011;2386;42.138;24.746;2022-08-07T14:33:13;11.17;;;7.10;;
4744;SDS011;2386;42.138;24.746;2022-08-07T14:35:41;12.30;;;8.03;;
4744;SDS011;2386;42.138;24.746;2022-08-07T14:38:07;16.23;;;7.97;;
4744;SDS011;2386;42.138;24.746;2022-08-07T14:40:33;11.70;;;8.17;;
4744;SDS011;2386;42.138;24.746;2022-08-07T14:43:04;7.97;;;7.20;;
4744;SDS011;2386;42.138;24.746;2022-08-07T14:45:43;12.40;;;6.90;;
4744;SDS011;2386;42.138;24.746;2022-08-07T14:48:12;11.93;;;8.27;;
4744;SDS011;2386;42.138;24.746;2022-08-07T14:50:43;8.23;;;7.00;;
4744;SDS011;2386;42.138;24.746;2022-08-07T14:53:11;7.33;;;6.57;;
4744;SDS011;2386;42.138;24.746;2022-08-07T14:55:38;7.07;;;6.37;;
4744;SDS011;2386;42.138;24.746;2022-08-07T14:58:06;6.33;;;5.70;;
4744;SDS011;2386;42.138;24.746;2022-08-07T15:00:33;7.03;;;5.80;;
4744;SDS011;2386;42.138;24.746;2022-08-07T15:03:03;9.90;;;6.40;;
4744;SDS011;2386;42.138;24.746;2022-08-07T15:05:30;10.90;;;6.40;;
4744;SDS011;2386;42.138;24.746;2022-08-07T15:07:57;6.93;;;5.60;;
4744;SDS011;2386;42.138;24.746;2022-08-07T15:10:25;7.43;;;5.80;;
4744;SDS011;2386;42.138;24.746;2022-08-07T15:12:53;8.87;;;5.97;;
4744;SDS011;2386;42.138;24.746;2022-08-07T15:15:23;7.10;;;5.43;;
4744;SDS011;2386;42.138;24.746;2022-08-07T15:18:03;13.53;;;5.53;;
4744;SDS011;2386;42.138;24.746;2022-08-07T15:20:41;8.10;;;6.30;;
4744;SDS011;2386;42.138;24.746;2022-08-07T15:23:10;7.50;;;5.90;;
4744;SDS011;2386;42.138;24.746;2022-08-07T15:25:39;7.57;;;5.43;;
4744;SDS011;2386;42.138;24.746;2022-08-07T15:28:11;6.77;;;6.00;;
4744;SDS011;2386;42.138;24.746;2022-08-07T15:30:41;7.13;;;6.43;;
4744;SDS011;2386;42.138;24.746;2022-08-07T15:33:14;9.97;;;6.97;;
4744;SDS011;2386;42.138;24.746;2022-08-07T15:35:42;6.67;;;6.00;;
4744;SDS011;2386;42.138;24.746;2022-08-07T15:38:13;7.07;;;6.43;;
4744;SDS011;2386;42.138;24.746;2022-08-07T15:40:39;7.67;;;6.50;;
4744;SDS011;2386;42.138;24.746;2022-08-07T15:43:13;9.70;;;6.80;;
4744;SDS011;2386;42.138;24.746;2022-08-07T15:45:41;9.07;;;6.40;;
4744;SDS011;2386;42.138;24.746;2022-08-07T15:48:13;9.10;;;6.37;;
4744;SDS011;2386;42.138;24.746;2022-08-07T15:50:45;6.97;;;6.27;;
4744;SDS011;2386;42.138;24.746;2022-08-07T15:53:15;12.13;;;6.80;;
4744;SDS011;2386;42.138;24.746;2022-08-07T15:55:52;8.27;;;6.23;;
4744;SDS011;2386;42.138;24.746;2022-08-07T15:58:22;7.10;;;6.07;;
4744;SDS011;2386;42.138;24.746;2022-08-07T16:01:01;13.30;;;6.37;;
4744;SDS011;2386;42.138;24.746;2022-08-07T16:03:30;8.80;;;6.23;;
4744;SDS011;2386;42.138;24.746;2022-08-07T16:05:59;7.10;;;6.17;;
4744;SDS011;2386;42.138;24.746;2022-08-07T16:08:26;8.17;;;5.83;;
4744;SDS011;2386;42.138;24.746;2022-08-07T16:11:04;9.10;;;6.37;;
4744;SDS011;2386;42.138;24.746;2022-08-07T16:30:07;9.10;;;6.57;;
4744;SDS011;2386;42.138;24.746;2022-08-07T16:33:16;10.60;;;6.50;;
4744;SDS011;2386;42.138;24.746;2022-08-07T16:35:31;8.30;;;6.57;;
4744;SDS011;2386;42.138;24.746;2022-08-07T16:44:23;13.53;;;6.33;;
4744;SDS011;2386;42.138;24.746;2022-08-07T16:47:14;15.33;;;6.50;;
4744;SDS011;2386;42.138;24.746;2022-08-07T17:00:32;7.80;;;7.03;;
4744;SDS011;2386;42.138;24.746;2022-08-07T17:05:57;7.73;;;6.93;;
4744;SDS011;2386;42.138;24.746;2022-08-07T17:11:32;10.53;;;7.60;;
4744;SDS011;2386;42.138;24.746;2022-08-07T17:14:10;7.70;;;6.90;;
4744;SDS011;2386;42.138;24.746;2022-08-07T17:21:52;8.20;;;7.00;;
4744;SDS011;2386;42.138;24.746;2022-08-07T17:32:17;12.63;;;8.73;;
4744;SDS011;2386;42.138;24.746;2022-08-07T17:34:56;18.27;;;8.90;;
4744;SDS011;2386;42.138;24.746;2022-08-07T17:37:41;10.73;;;8.20;;
4744;SDS011;2386;42.138;24.746;2022-08-07T17:40:27;11.07;;;7.87;;
4744;SDS011;2386;42.138;24.746;2022-08-07T17:43:12;13.53;;;8.50;;
4744;SDS011;2386;42.138;24.746;2022-08-07T17:45:53;9.90;;;7.77;;
4744;SDS011;2386;42.138;24.746;2022-08-07T17:48:23;13.97;;;8.47;;
4744;SDS011;2386;42.138;24.746;2022-08-07T17:50:57;9.13;;;7.47;;
4744;SDS011;2386;42.138;24.746;2022-08-07T17:56:07;12.73;;;7.83;;
4744;SDS011;2386;42.138;24.746;2022-08-07T18:01:02;14.40;;;7.83;;
4744;SDS011;2386;42.138;24.746;2022-08-07T18:03:39;13.30;;;8.13;;
4744;SDS011;2386;42.138;24.746;2022-08-07T18:06:11;11.47;;;8.60;;
4744;SDS011;2386;42.138;24.746;2022-08-07T18:11:25;12.80;;;8.63;;
4744;SDS011;2386;42.138;24.746;2022-08-07T18:14:10;20.10;;;8.53;;
4744;SDS011;2386;42.138;24.746;2022-08-07T18:19:53;15.83;;;8.00;;
4744;SDS011;2386;42.138;24.746;2022-08-07T18:25:04;12.43;;;8.47;;
4744;SDS011;2386;42.138;24.746;2022-08-07T18:30:11;13.07;;;7.70;;
4744;SDS011;2386;42.138;24.746;2022-08-07T18:43:26;15.10;;;8.83;;
4744;SDS011;2386;42.138;24.746;2022-08-07T18:46:07;15.07;;;9.67;;
4744;SDS011;2386;42.138;24.746;2022-08-07T18:48:52;12.97;;;9.47;;
4744;SDS011;2386;42.138;24.746;2022-08-07T18:51:33;11.93;;;9.07;;
4744;SDS011;2386;42.138;24.746;2022-08-07T18:56:49;14.27;;;9.00;;
4744;SDS011;2386;42.138;24.746;2022-08-07T19:02:49;15.67;;;8.50;;
4744;SDS011;2386;42.138;24.746;2022-08-07T19:05:35;12.30;;;8.40;;
4744;SDS011;2386;42.138;24.746;2022-08-07T19:08:06;10.70;;;9.20;;
4744;SDS011;2386;42.138;24.746;2022-08-07T19:10:56;13.23;;;8.87;;
4744;SDS011;2386;42.138;24.746;2022-08-07T19:16:47;19.60;;;10.40;;
4744;SDS011;2386;42.138;24.746;2022-08-07T19:19:37;14.17;;;10.47;;
4744;SDS011;2386;42.138;24.746;2022-08-07T19:24:49;18.13;;;11.90;;
4744;SDS011;2386;42.138;24.746;2022-08-07T19:27:18;20.70;;;10.63;;
4744;SDS011;2386;42.138;24.746;2022-08-07T19:29:55;13.40;;;10.17;;
4744;SDS011;2386;42.138;24.746;2022-08-07T19:32:25;13.80;;;11.10;;
4744;SDS011;2386;42.138;24.746;2022-08-07T19:34:59;13.43;;;10.17;;
4744;SDS011;2386;42.138;24.746;2022-08-07T19:37:30;13.53;;;10.23;;
4744;SDS011;2386;42.138;24.746;2022-08-07T19:39:59;12.43;;;10.00;;
4744;SDS011;2386;42.138;24.746;2022-08-07T19:42:27;15.70;;;10.17;;
4744;SDS011;2386;42.138;24.746;2022-08-07T19:44:54;11.77;;;10.00;;
4744;SDS011;2386;42.138;24.746;2022-08-07T19:47:25;17.50;;;10.10;;
4744;SDS011;2386;42.138;24.746;2022-08-07T19:49:54;11.03;;;9.40;;
4744;SDS011;2386;42.138;24.746;2022-08-07T19:52:23;11.63;;;9.93;;
4744;SDS011;2386;42.138;24.746;2022-08-07T19:54:52;13.20;;;9.33;;
4744;SDS011;2386;42.138;24.746;2022-08-07T19:57:25;15.37;;;9.37;;
4744;SDS011;2386;42.138;24.746;2022-08-07T20:00:00;12.60;;;9.10;;
4744;SDS011;2386;42.138;24.746;2022-08-07T20:02:41;10.57;;;8.73;;
4744;SDS011;2386;42.138;24.746;2022-08-07T20:05:11;9.93;;;8.30;;
4744;SDS011;2386;42.138;24.746;2022-08-07T20:07:39;10.87;;;7.83;;
4744;SDS011;2386;42.138;24.746;2022-08-07T20:10:11;10.93;;;8.57;;
4744;SDS011;2386;42.138;24.746;2022-08-07T20:12:38;14.67;;;9.07;;
4744;SDS011;2386;42.138;24.746;2022-08-07T20:15:05;11.83;;;8.40;;